createdAt,value
2023-03-05T00:03:21.518Z,1.68
2023-03-05T00:08:54.351Z,1.60
2023-03-05T00:14:20.389Z,1.58
2023-03-05T00:19:47.401Z,1.55
2023-03-05T00:25:14.391Z,1.52
2023-03-05T00:30:38.688Z,1.43
2023-03-05T00:36:09.405Z,1.42
2023-03-05T00:41:34.398Z,1.41
2023-03-05T00:46:59.378Z,1.41
2023-03-05T00:52:27.409Z,1.35
2023-03-05T00:57:52.385Z,1.26
2023-03-05T01:03:17.405Z,1.22
2023-03-05T01:08:52.423Z,1.21
2023-03-05T01:14:17.369Z,1.09
2023-03-05T01:19:49.950Z,1.12
2023-03-05T01:25:18.464Z,1.08
2023-03-05T01:30:51.504Z,1.03
2023-03-05T01:36:20.859Z,0.99
2023-03-05T01:41:47.415Z,0.96
2023-03-05T01:47:12.396Z,0.94
2023-03-05T01:52:39.415Z,0.87
2023-03-05T01:58:13.383Z,0.89
2023-03-05T02:03:40.448Z,0.94
2023-03-05T02:09:13.384Z,0.84
2023-03-05T02:14:42.596Z,0.89
2023-03-05T02:20:09.408Z,0.90
2023-03-05T02:25:39.635Z,0.87
2023-03-05T02:31:03.384Z,0.86
2023-03-05T02:36:35.383Z,0.85
2023-03-05T02:42:03.393Z,0.92
2023-03-05T02:47:28.410Z,0.88
2023-03-05T02:52:53.423Z,0.86
2023-03-05T02:58:20.425Z,0.94
2023-03-05T03:03:45.394Z,0.90
2023-03-05T03:09:09.414Z,0.86
2023-03-05T03:14:37.429Z,0.85
2023-03-05T03:20:02.403Z,0.89
2023-03-05T03:25:29.434Z,0.90
2023-03-05T03:30:56.474Z,0.88
2023-03-05T03:36:21.430Z,0.90
2023-03-05T03:41:45.430Z,0.85
2023-03-05T03:47:13.409Z,0.79
2023-03-05T03:52:37.480Z,0.67
2023-03-05T03:58:03.474Z,0.60
2023-03-05T04:03:30.431Z,0.54
2023-03-05T04:08:55.433Z,0.51
2023-03-05T04:14:20.409Z,0.54
2023-03-05T04:19:48.426Z,0.51
2023-03-05T04:25:13.458Z,0.54
2023-03-05T04:30:42.478Z,0.60
2023-03-05T04:36:09.467Z,0.58
2023-03-05T04:41:34.435Z,0.60
2023-03-05T04:46:59.445Z,0.56
2023-03-05T04:52:27.415Z,0.53
2023-03-05T04:57:51.458Z,0.57
2023-03-05T05:03:16.458Z,0.51
2023-03-05T05:08:43.461Z,0.52
2023-03-05T05:14:08.471Z,0.50
2023-03-05T05:19:33.481Z,0.47
2023-03-05T05:25:01.482Z,0.47
2023-03-05T05:30:27.458Z,0.45
2023-03-05T05:35:58.496Z,0.45
2023-03-05T05:41:27.478Z,0.48
2023-03-05T05:46:51.458Z,0.49
2023-03-05T05:52:16.472Z,0.49
2023-03-05T05:57:43.467Z,0.49
2023-03-05T06:03:08.587Z,0.49
2023-03-05T06:08:33.484Z,0.53
2023-03-05T06:14:01.481Z,0.53
2023-03-05T06:19:28.544Z,0.54
2023-03-05T06:24:53.498Z,0.57
2023-03-05T06:30:21.493Z,0.65
2023-03-05T06:35:48.534Z,0.70
2023-03-05T06:41:18.504Z,0.74
2023-03-05T06:46:46.503Z,0.79
2023-03-05T06:52:10.490Z,0.88
2023-03-05T06:57:35.496Z,1.38
2023-03-05T07:03:02.485Z,1.68
2023-03-05T07:08:27.490Z,1.81
2023-03-05T07:13:54.502Z,1.89
2023-03-05T07:19:22.569Z,1.94
2023-03-05T07:24:46.506Z,1.66
2023-03-05T07:30:11.484Z,1.46
2023-03-05T07:35:38.528Z,1.37
2023-03-05T07:41:03.525Z,1.32
2023-03-05T07:46:30.548Z,1.32
2023-03-05T07:51:58.533Z,1.35
2023-03-05T07:57:24.487Z,1.36
2023-03-05T08:02:49.556Z,1.35
2023-03-05T08:08:16.544Z,1.36
2023-03-05T08:13:41.531Z,1.35
2023-03-05T08:19:05.554Z,1.36
2023-03-05T08:24:36.543Z,1.37
2023-03-05T08:30:00.551Z,1.40
2023-03-05T08:35:25.552Z,1.42
2023-03-05T08:40:52.582Z,1.45
2023-03-05T08:46:19.618Z,1.45
2023-03-05T08:51:45.543Z,1.46
2023-03-05T08:57:13.543Z,1.46
2023-03-05T09:02:38.544Z,1.45
2023-03-05T09:08:03.550Z,1.45
2023-03-05T09:13:30.565Z,1.41
2023-03-05T09:18:55.559Z,1.38
2023-03-05T09:24:20.590Z,1.44
2023-03-05T09:29:48.626Z,1.55
2023-03-05T09:35:13.539Z,1.68
2023-03-05T09:40:46.561Z,1.81
2023-03-05T09:46:27.560Z,2.04
2023-03-05T09:51:55.553Z,2.20
2023-03-05T09:57:25.661Z,2.35
2023-03-05T10:03:02.660Z,2.39
2023-03-05T10:08:29.603Z,2.30
2023-03-05T10:13:57.543Z,2.29
2023-03-05T10:19:34.581Z,2.21
2023-03-05T10:25:12.551Z,2.28
2023-03-05T10:30:48.582Z,2.41
2023-03-05T10:36:37.597Z,2.60
2023-03-05T10:42:12.568Z,2.83
2023-03-05T10:47:42.588Z,2.73
2023-03-05T10:53:23.561Z,2.77
2023-03-05T10:58:49.963Z,2.77
2023-03-05T11:04:17.592Z,2.80
2023-03-05T11:09:47.578Z,2.66
2023-03-05T11:15:29.637Z,2.64
2023-03-05T11:20:54.575Z,2.72
2023-03-05T11:26:32.637Z,2.75
2023-03-05T11:31:56.641Z,2.88
2023-03-05T11:37:38.592Z,2.91
2023-03-05T11:43:09.617Z,2.83
2023-03-05T11:48:40.616Z,2.82
2023-03-05T11:54:15.657Z,2.82
2023-03-05T11:59:48.642Z,2.68
2023-03-05T12:05:15.642Z,2.61
2023-03-05T12:10:41.985Z,2.56
2023-03-05T12:16:19.705Z,2.52
2023-03-05T12:21:49.655Z,2.47
2023-03-05T12:27:23.616Z,2.36
2023-03-05T12:33:12.639Z,2.40
2023-03-05T12:38:48.678Z,2.41
2023-03-05T12:44:27.668Z,2.41
2023-03-05T12:49:59.641Z,2.30
2023-03-05T12:55:28.638Z,1.84
2023-03-05T13:00:58.817Z,1.04
2023-03-05T13:06:36.663Z,0.89
2023-03-05T13:12:03.674Z,0.99
2023-03-05T13:17:40.683Z,1.19
2023-03-05T13:23:18.706Z,1.50
2023-03-05T13:28:45.626Z,1.72
2023-03-05T13:34:12.653Z,1.88
2023-03-05T13:39:49.687Z,1.96
2023-03-05T13:45:29.673Z,2.03
2023-03-05T13:50:55.701Z,2.09
2023-03-05T13:56:27.663Z,2.13
2023-03-05T14:02:01.637Z,2.21
2023-03-05T14:07:40.637Z,2.27
2023-03-05T14:13:07.676Z,2.31
2023-03-05T14:18:32.788Z,2.38
2023-03-05T14:23:59.681Z,2.42
2023-03-05T14:29:30.699Z,2.49
2023-03-05T14:34:59.184Z,2.55
2023-03-05T14:40:30.710Z,2.57
2023-03-05T14:45:58.731Z,2.62
2023-03-05T14:51:24.724Z,2.63
2023-03-05T14:56:49.836Z,2.64
2023-03-05T15:02:28.787Z,2.60
2023-03-05T15:07:53.706Z,2.62
2023-03-05T15:13:18.679Z,2.64
2023-03-05T15:18:45.794Z,2.62
2023-03-05T15:24:11.464Z,2.62
2023-03-05T15:29:37.769Z,2.61
2023-03-05T15:35:05.707Z,2.60
2023-03-05T15:40:30.832Z,2.57
2023-03-05T15:45:56.761Z,2.52
2023-03-05T15:51:27.204Z,2.47
2023-03-05T15:56:51.684Z,2.43
2023-03-05T16:02:15.740Z,2.41
2023-03-05T16:07:44.720Z,2.36
2023-03-05T16:13:13.764Z,2.33
2023-03-05T16:18:40.729Z,2.31
2023-03-05T16:24:07.692Z,2.33
2023-03-05T16:29:33.748Z,2.26
2023-03-05T16:34:57.714Z,2.25
2023-03-05T16:40:56.563Z,2.19
2023-03-05T16:46:16.746Z,2.14
2023-03-05T16:51:41.763Z,2.14
2023-03-05T16:57:10.866Z,2.09
2023-03-05T17:02:34.738Z,2.11
2023-03-05T17:07:59.740Z,2.05
2023-03-05T17:13:26.740Z,1.98
2023-03-05T17:18:45.771Z,1.97
2023-03-05T17:24:12.090Z,1.90
2023-03-05T17:29:38.783Z,1.84
2023-03-05T17:35:05.470Z,1.84
2023-03-05T17:40:38.744Z,1.85
2023-03-05T17:46:07.797Z,1.78
2023-03-05T17:51:32.868Z,1.79
2023-03-05T17:56:57.771Z,1.77
2023-03-05T18:02:25.752Z,1.81
2023-03-05T18:07:50.843Z,1.81
2023-03-05T18:13:15.766Z,1.82
2023-03-05T18:18:43.782Z,1.77
2023-03-05T18:24:07.775Z,1.70
2023-03-05T18:29:33.766Z,1.70
2023-03-05T18:35:00.763Z,1.67
2023-03-05T18:40:33.749Z,1.66
2023-03-05T18:45:59.760Z,1.66
2023-03-05T18:51:30.816Z,1.62
2023-03-05T18:56:55.781Z,1.59
2023-03-05T19:02:19.767Z,1.57
2023-03-05T19:07:53.786Z,1.49
2023-03-05T19:13:32.795Z,1.44
2023-03-05T19:19:03.771Z,1.32
2023-03-05T19:24:32.815Z,1.28
2023-03-05T19:29:59.798Z,1.15
2023-03-05T19:35:25.883Z,1.11
2023-03-05T19:40:55.828Z,1.03
2023-03-05T19:46:20.856Z,0.98
2023-03-05T19:51:46.798Z,0.96
2023-03-05T19:57:14.826Z,0.82
2023-03-05T20:02:39.818Z,0.74
2023-03-05T20:08:10.826Z,0.68
2023-03-05T20:13:38.799Z,0.65
2023-03-05T20:19:04.782Z,0.63
2023-03-05T20:24:29.813Z,0.58
2023-03-05T20:30:00.811Z,0.58
2023-03-05T20:35:26.849Z,0.53
2023-03-05T20:40:51.805Z,0.47
2023-03-05T20:46:27.873Z,0.41
2023-03-05T20:51:53.821Z,0.37
2023-03-05T20:57:18.848Z,0.34
2023-03-05T21:02:46.821Z,0.32
2023-03-05T21:08:20.842Z,0.30
2023-03-05T21:13:46.835Z,0.28
2023-03-05T21:19:13.855Z,0.29
2023-03-05T21:24:49.863Z,0.30
2023-03-05T21:30:14.859Z,0.33
2023-03-05T21:35:45.731Z,0.39
2023-03-05T21:41:09.870Z,0.38
2023-03-05T21:46:35.847Z,0.40
2023-03-05T21:52:15.842Z,0.39
2023-03-05T21:57:43.909Z,0.39
2023-03-05T22:03:08.846Z,0.41
2023-03-05T22:08:42.855Z,0.42
2023-03-05T22:14:07.833Z,0.40
2023-03-05T22:19:31.860Z,0.42
2023-03-05T22:24:59.866Z,0.42
2023-03-05T22:30:25.916Z,0.44
2023-03-05T22:35:51.906Z,0.44
2023-03-05T22:41:25.825Z,0.45
2023-03-05T22:46:50.891Z,0.46
2023-03-05T22:52:14.871Z,0.46
2023-03-05T22:57:42.897Z,0.46
2023-03-05T23:03:07.944Z,0.47
2023-03-05T23:08:38.863Z,0.46
2023-03-05T23:14:06.879Z,0.47
2023-03-05T23:19:30.906Z,0.45
2023-03-05T23:24:56.875Z,0.47
2023-03-05T23:30:28.942Z,0.47
2023-03-05T23:36:04.878Z,0.45
2023-03-05T23:41:28.871Z,0.47
2023-03-05T23:46:56.860Z,0.48
2023-03-05T23:52:21.887Z,0.47
2023-03-05T23:57:46.876Z,0.47
